KQEV

Gongju Rws

Gongju Rws, South Korea
METAR KQEV 221840Z AUTO 30001KT 4000 BR OVC027 M05/M06 A3007 RMK A02 TSNO
Observed Flight Rules
Jan-22 @ 18:40 UTC (14 minutes ago) Instrument Flight Rules
Wind Visibility Clouds Conditions
300° at 1 knots 4,007 meters
  • Overcast at 2,700' AGL
  • Mist
Temperatures Readings
Current -5°C / 23°F
Dewpoint -6°C / 21°F
Humidity 93%
Altimeter 30.07" Hg
Pressure 1018.32 hPa
METAR KQEV 221840Z AUTO 30001KT 4000 BR OVC027 M05/M06 A3007 RMK A02 TSNO
Observed Flight Rules
Jan-22 @ 18:40 UTC
(14 minutes ago)
IFR
Wind Visibility
300° at 1 knots 4,007 meters
Clouds
  • Overcast at 2,700' AGL
Conditions
  • Mist
Temperature Dewpoint
-5°C / 23°F -6°C / 21°F
Humidity Altimeter Pressure
93% 30.07" Hg 1018.32 hPa